Etusivu
METAR-TAF:

METAR-TAF

Lentoasemat :

Bluefields, Nicaragua

Leveyspiiri: 12-00N, Pituuspiiri: 083-46W, korkeus merenpinnasta: 5 m

Tämänhetkinen sää

Tämä raportti tehtiin 40 minuuttia sitten, kello 23.00 UTC
Tuuli 4 kn idästä/koillisesta
Lämpötila 27°C
Kosteus 70%
Ilmanpaine 1012 hPa
Näkyvyys 10 km tai enemmän
Muutamia pilviä 2500 ft:n korkeudessa

METAR: MNBL 242300Z 07004KT 9999 FEW025 27/21 Q1012

Aika: 17:40 (23:40 UTC)

Sääennuste

Tämä raportti tehtiin 2 tuntia ja 45 minuuttia sitten, kello 20.55 UTC
Ennuste voimassa 25. päivästä klo 00 UTC - 25. päivään klo 24 UTC
Tuuli 4 kn idästä/koillisesta
Näkyvyys 10 km tai enemmän
Muutamia pilviä 2000 ft:n korkeudessa
Ajoittain
25. päivästä klo 03 UTC - 25. päivään klo 12 UTC
Tuuli 6 kn pohjoisesta
Näkyvyys: 5000 m
Hajonneita pilviä 1600 ft:n korkeudessa
tihkusadetta

TAF: MNBL 242055Z 2500/2524 07004KT 9999 FEW020 TEMPO 2503/2512 36006KT 5000 DZ BKN016

Säähavainnot ja -ennusteet yli 4000 lentoasemalta (METAR- ja TAF-raportit).

Käytössä olevat sääasemat on merkitty karttaan keltaisilla ja punaisilla pisteillä.

Aseta hiiri pisteen päälle nähdäksesi sääaseman nimen.

Klikkaa sitten nähdäksesi säähavainnot ja -ennusteet.

Kartan vaihtaminen: klikkaa mustalla rastilla varustettuja vihreitä pisteitä, niin voit zoomata sisään; viivalla varustettua vihreää pistettä, niin voit zoomata ulos tai vihreitä nuolia, niin pääset viereisille kartoille.


METAR-TAF: